createdAt,value
2019-03-25T00:02:28.476Z,101591.30
2019-03-25T00:05:12.354Z,101580.02
2019-03-25T00:07:45.795Z,101601.91
2019-03-25T00:10:30.697Z,101565.37
2019-03-25T00:13:14.591Z,101582.69
2019-03-25T00:15:58.719Z,101562.83
2019-03-25T00:18:42.600Z,101565.85
2019-03-25T00:21:26.584Z,101562.54
2019-03-25T00:24:11.415Z,101538.97
2019-03-25T00:26:57.557Z,101555.83
2019-03-25T00:29:42.112Z,101557.57
2019-03-25T00:32:27.106Z,101516.41
2019-03-25T00:35:11.150Z,101511.95
2019-03-25T00:37:55.279Z,101500.50
2019-03-25T00:40:39.503Z,101491.39
2019-03-25T00:43:23.747Z,101513.63
2019-03-25T00:46:08.233Z,101481.23
2019-03-25T00:48:52.202Z,101462.05
2019-03-25T00:51:36.915Z,101496.08
2019-03-25T00:54:21.641Z,101479.83
2019-03-25T00:57:06.230Z,101472.67
2019-03-25T00:59:50.200Z,101443.62
2019-03-25T01:02:35.946Z,101449.99
2019-03-25T01:05:20.169Z,101423.75
2019-03-25T01:08:05.624Z,101445.72
2019-03-25T01:10:49.719Z,101454.05
2019-03-25T01:13:33.716Z,101443.44
2019-03-25T01:16:17.944Z,101444.04
2019-03-25T01:19:02.113Z,101425.91
2019-03-25T01:21:35.850Z,101462.75
2019-03-25T01:24:09.179Z,101473.47
2019-03-25T01:26:53.693Z,101432.66
2019-03-25T01:29:37.814Z,101431.26
2019-03-25T01:32:22.805Z,101441.62
2019-03-25T01:35:07.172Z,101440.14
2019-03-25T01:37:51.144Z,101445.72
2019-03-25T01:40:35.240Z,101473.17
2019-03-25T01:43:20.978Z,101475.23
2019-03-25T01:46:04.934Z,101437.92
2019-03-25T01:48:49.761Z,101436.45
2019-03-25T01:51:34.454Z,101464.91
2019-03-25T01:54:18.603Z,101454.25
2019-03-25T01:57:02.583Z,101428.61
2019-03-25T01:59:46.391Z,101441.22
2019-03-25T02:02:30.345Z,101409.14
2019-03-25T02:05:14.512Z,101408.72
2019-03-25T02:07:59.491Z,101399.34
2019-03-25T02:10:43.471Z,101422.76
2019-03-25T02:13:28.478Z,101390.27
2019-03-25T02:16:12.351Z,101409.72
2019-03-25T02:18:57.625Z,101379.68
2019-03-25T02:21:42.121Z,101400.03
2019-03-25T02:24:28.098Z,101403.45
2019-03-25T02:27:12.025Z,101376.52
2019-03-25T02:29:56.241Z,101373.78
2019-03-25T02:32:40.655Z,101373.75
2019-03-25T02:35:24.805Z,101391.49
2019-03-25T02:38:10.177Z,101397.91
2019-03-25T02:40:53.910Z,101389.41
2019-03-25T02:43:37.917Z,101362.84
2019-03-25T02:46:22.176Z,101351.59
2019-03-25T02:49:06.831Z,101374.70
2019-03-25T02:51:50.871Z,101348.67
2019-03-25T02:54:35.427Z,101380.47
2019-03-25T02:57:19.275Z,101341.20
2019-03-25T03:00:03.809Z,101366.40
2019-03-25T03:02:49.278Z,101336.28
2019-03-25T03:05:35.135Z,101340.53
2019-03-25T03:08:19.474Z,101336.75
2019-03-25T03:11:04.042Z,101330.56
2019-03-25T03:13:48.767Z,101363.74
2019-03-25T03:16:33.457Z,101377.53
2019-03-25T03:19:19.227Z,101374.62
2019-03-25T03:22:03.132Z,101369.67
2019-03-25T03:24:36.143Z,101383.09
2019-03-25T03:27:20.151Z,101349.16
2019-03-25T03:30:04.537Z,101389.13
2019-03-25T03:32:48.602Z,101378.78
2019-03-25T03:35:33.168Z,101361.12
2019-03-25T03:38:19.884Z,101388.84
2019-03-25T03:41:04.447Z,101351.86
2019-03-25T03:43:48.180Z,101376.79
2019-03-25T03:46:32.097Z,101377.91
2019-03-25T03:49:16.513Z,101354.30
2019-03-25T03:52:00.604Z,101372.84
2019-03-25T03:54:44.896Z,101377.23
2019-03-25T03:57:28.745Z,101339.45
2019-03-25T04:00:15.712Z,101347.62
2019-03-25T04:02:59.637Z,101363.88
2019-03-25T04:05:43.739Z,101337.59
2019-03-25T04:08:27.530Z,101325.39
2019-03-25T04:11:11.636Z,101347.20
2019-03-25T04:13:55.788Z,101326.94
2019-03-25T04:16:39.532Z,101353.09
2019-03-25T04:19:23.895Z,101342.59
2019-03-25T04:22:09.742Z,101340.34
2019-03-25T04:24:53.922Z,101356.17
2019-03-25T04:27:38.833Z,101350.33
2019-03-25T04:30:23.448Z,101328.19
2019-03-25T04:33:08.149Z,101329.94
2019-03-25T04:35:52.864Z,101329.97
2019-03-25T04:38:38.314Z,101349.48
2019-03-25T04:41:24.488Z,101318.98
2019-03-25T04:44:08.615Z,101317.19
2019-03-25T04:46:53.047Z,101327.49
2019-03-25T04:49:38.531Z,101347.91
2019-03-25T04:52:23.242Z,101344.80
2019-03-25T04:55:07.626Z,101342.23
2019-03-25T04:57:52.316Z,101317.56
2019-03-25T05:00:45.021Z,101346.40
2019-03-25T05:03:29.847Z,101343.84
2019-03-25T05:06:14.262Z,101343.68
2019-03-25T05:08:58.429Z,101341.45
2019-03-25T05:11:42.757Z,101310.94
2019-03-25T05:14:27.279Z,101327.77
2019-03-25T05:17:10.494Z,101331.38
2019-03-25T05:19:43.286Z,101318.02
2019-03-25T05:22:27.239Z,101289.45
2019-03-25T05:25:11.616Z,101314.06
2019-03-25T05:27:55.776Z,101309.23
2019-03-25T05:30:40.431Z,101314.00
2019-03-25T05:33:24.920Z,101315.92
2019-03-25T05:36:10.054Z,101316.46
2019-03-25T05:38:58.370Z,101293.75
2019-03-25T05:41:42.826Z,101302.86
2019-03-25T05:44:28.847Z,101331.22
2019-03-25T05:47:13.458Z,101309.38
2019-03-25T05:49:58.498Z,101333.84
2019-03-25T05:52:43.741Z,101306.70
2019-03-25T05:55:28.235Z,101309.70
2019-03-25T05:58:12.469Z,101340.65
2019-03-25T06:00:56.454Z,101298.23
2019-03-25T06:03:40.819Z,101295.72
2019-03-25T06:06:26.528Z,101294.64
2019-03-25T06:09:13.052Z,101309.86
2019-03-25T06:11:57.552Z,101292.33
2019-03-25T06:14:41.878Z,101275.28
2019-03-25T06:17:26.314Z,101270.49
2019-03-25T06:20:10.542Z,101268.85
2019-03-25T06:22:54.503Z,101295.36
2019-03-25T06:25:38.589Z,101275.34
2019-03-25T06:28:27.136Z,101269.94
2019-03-25T06:31:11.760Z,101269.64
2019-03-25T06:33:56.437Z,101298.20
2019-03-25T06:36:41.674Z,101270.27
2019-03-25T06:39:26.778Z,101299.37
2019-03-25T06:42:11.673Z,101304.47
2019-03-25T06:44:56.790Z,101315.64
2019-03-25T06:47:41.338Z,101287.61
2019-03-25T06:50:25.281Z,101313.42
2019-03-25T06:53:09.596Z,101292.69
2019-03-25T06:55:54.239Z,101322.98
2019-03-25T06:58:38.542Z,101321.59
2019-03-25T07:01:22.396Z,101301.61
2019-03-25T07:04:08.078Z,101324.03
2019-03-25T07:06:52.558Z,101298.11
2019-03-25T07:09:36.477Z,101326.06
2019-03-25T07:12:20.847Z,101330.31
2019-03-25T07:15:05.647Z,101326.55
2019-03-25T07:17:50.345Z,101287.81
2019-03-25T07:20:34.991Z,101311.52
2019-03-25T07:23:19.991Z,101283.38
2019-03-25T07:25:53.069Z,101312.59
2019-03-25T07:28:38.775Z,101315.36
2019-03-25T07:31:23.093Z,101286.45
2019-03-25T07:34:06.988Z,101296.95
2019-03-25T07:36:57.621Z,101283.56
2019-03-25T07:39:42.429Z,101304.94
2019-03-25T07:42:26.685Z,101280.03
2019-03-25T07:45:10.763Z,101290.19
2019-03-25T07:47:54.745Z,101310.58
2019-03-25T07:50:38.852Z,101284.52
2019-03-25T07:53:23.684Z,101316.28
2019-03-25T07:56:07.991Z,101313.27
2019-03-25T07:58:56.971Z,101286.59
2019-03-25T08:01:43.762Z,101302.57
2019-03-25T08:04:28.568Z,101314.31
2019-03-25T08:07:14.941Z,101289.90
2019-03-25T08:09:59.704Z,101308.09
2019-03-25T08:12:44.589Z,101333.62
2019-03-25T08:15:28.977Z,101331.14
2019-03-25T08:18:12.704Z,101312.73
2019-03-25T08:20:56.618Z,101315.45
2019-03-25T08:23:40.556Z,101351.72
2019-03-25T08:26:24.918Z,101358.56
2019-03-25T08:32:15.380Z,101353.22
2019-03-25T08:34:59.245Z,101377.34
2019-03-25T08:37:43.982Z,101357.09
2019-03-25T08:40:28.080Z,101396.71
2019-03-25T08:43:12.611Z,101390.03
2019-03-25T08:45:56.463Z,101432.58
2019-03-25T08:48:40.503Z,101425.80
2019-03-25T08:51:24.843Z,101423.66
2019-03-25T08:54:09.668Z,101422.02
2019-03-25T08:56:53.913Z,101413.88
2019-03-25T08:59:44.414Z,101458.33
2019-03-25T09:02:28.303Z,101431.59
2019-03-25T09:05:12.797Z,101463.23
2019-03-25T09:07:59.208Z,101438.64
2019-03-25T09:10:43.637Z,101447.48
2019-03-25T09:13:27.763Z,101462.06
2019-03-25T09:16:13.142Z,101489.45
2019-03-25T09:18:57.487Z,101496.23
2019-03-25T09:21:41.744Z,101490.94
2019-03-25T09:24:25.925Z,101501.51
2019-03-25T09:27:10.438Z,101482.16
2019-03-25T09:29:55.033Z,101475.34
2019-03-25T09:32:40.826Z,101484.97
2019-03-25T09:35:25.405Z,101485.17
2019-03-25T09:38:09.240Z,101481.52
2019-03-25T09:40:53.903Z,101519.66
2019-03-25T09:43:39.824Z,101517.84
2019-03-25T09:46:24.650Z,101524.93
2019-03-25T09:49:12.818Z,101505.09
2019-03-25T09:51:57.164Z,101495.90
2019-03-25T09:54:41.905Z,101529.91
2019-03-25T09:57:26.640Z,101507.85
2019-03-25T10:00:12.764Z,101539.39
2019-03-25T10:02:56.731Z,101520.60
2019-03-25T10:05:41.548Z,101533.01
2019-03-25T10:08:25.449Z,101537.12
2019-03-25T10:11:09.567Z,101503.78
2019-03-25T10:13:55.012Z,101505.38
2019-03-25T10:16:39.845Z,101527.23
2019-03-25T10:19:24.479Z,101519.91
2019-03-25T10:22:14.775Z,101525.46
2019-03-25T10:24:48.133Z,101526.80
2019-03-25T10:30:34.731Z,101508.05
2019-03-25T10:33:19.288Z,101507.27
2019-03-25T10:35:52.395Z,101545.53
2019-03-25T10:38:41.130Z,101526.97
2019-03-25T10:41:25.454Z,101524.96
2019-03-25T10:44:09.740Z,101548.45
2019-03-25T10:46:53.673Z,101540.47
2019-03-25T10:49:38.351Z,101546.88
2019-03-25T10:52:25.274Z,101572.69
2019-03-25T10:55:09.775Z,101579.19
2019-03-25T10:57:56.666Z,101546.86
2019-03-25T11:00:41.286Z,101557.30
2019-03-25T11:03:25.641Z,101546.02
2019-03-25T11:05:59.974Z,101576.70
2019-03-25T11:08:43.767Z,101566.47
2019-03-25T11:11:27.671Z,101576.06
2019-03-25T11:14:12.574Z,101599.55
2019-03-25T11:17:02.600Z,101603.53
2019-03-25T11:19:49.319Z,101581.11
2019-03-25T11:22:33.194Z,101573.27
2019-03-25T11:25:17.717Z,101604.73
2019-03-25T11:28:02.439Z,101568.06
2019-03-25T11:30:49.932Z,101570.22
2019-03-25T11:33:35.086Z,101591.81
2019-03-25T11:36:08.133Z,101595.53
2019-03-25T11:38:52.170Z,101573.77
2019-03-25T11:41:38.830Z,101558.18
2019-03-25T11:44:23.192Z,101567.75
2019-03-25T11:47:07.451Z,101570.66
2019-03-25T11:49:51.456Z,101600.41
2019-03-25T11:52:35.924Z,101603.14
2019-03-25T11:55:20.348Z,101584.92
2019-03-25T11:58:06.378Z,101646.78
2019-03-25T12:00:50.865Z,101630.28
2019-03-25T12:03:35.843Z,101657.16
2019-03-25T12:06:20.073Z,101652.82
2019-03-25T12:08:53.432Z,101654.11
2019-03-25T12:11:37.877Z,101669.39
2019-03-25T12:14:22.730Z,101672.04
2019-03-25T12:17:07.163Z,101656.25
2019-03-25T12:19:52.276Z,101681.98
2019-03-25T12:22:37.111Z,101686.80
2019-03-25T12:25:22.365Z,101658.33
2019-03-25T12:28:07.543Z,101673.63
2019-03-25T12:30:52.199Z,101658.44
2019-03-25T12:33:38.614Z,101656.23
2019-03-25T12:36:22.766Z,101671.02
2019-03-25T12:39:07.466Z,101669.20
2019-03-25T12:41:52.118Z,101688.59
2019-03-25T12:44:37.891Z,101689.44
2019-03-25T12:47:22.046Z,101696.07
2019-03-25T12:50:07.718Z,101699.95
2019-03-25T12:52:52.684Z,101686.91
2019-03-25T12:55:37.070Z,101706.19
2019-03-25T12:58:21.619Z,101713.05
2019-03-25T13:01:11.901Z,101676.89
2019-03-25T13:03:56.737Z,101679.53
2019-03-25T13:06:41.766Z,101708.22
2019-03-25T13:09:26.727Z,101685.14
2019-03-25T13:12:11.672Z,101696.68
2019-03-25T13:14:56.095Z,101694.31
2019-03-25T13:17:40.639Z,101698.17
2019-03-25T13:20:25.751Z,101732.50
2019-03-25T13:23:09.852Z,101736.47
2019-03-25T13:25:54.282Z,101724.25
2019-03-25T13:28:38.781Z,101741.18
2019-03-25T13:31:22.950Z,101717.89
2019-03-25T13:34:07.060Z,101720.29
2019-03-25T13:36:40.032Z,101736.52
2019-03-25T13:39:24.274Z,101721.36
2019-03-25T13:42:10.115Z,101733.28
2019-03-25T13:44:57.620Z,101763.88
2019-03-25T13:47:41.319Z,101740.08
2019-03-25T13:50:26.068Z,101742.69
2019-03-25T13:53:10.341Z,101733.12
2019-03-25T13:55:55.626Z,101771.63
2019-03-25T13:58:39.934Z,101747.36
2019-03-25T14:01:23.683Z,101757.87
2019-03-25T14:04:07.938Z,101786.23
2019-03-25T14:06:52.040Z,101766.17
2019-03-25T14:09:36.810Z,101796.69
2019-03-25T14:12:21.375Z,101808.55
2019-03-25T14:15:06.687Z,101820.37
2019-03-25T14:17:50.640Z,101825.33
2019-03-25T14:20:35.738Z,101803.71
2019-03-25T14:23:20.554Z,101805.56
2019-03-25T14:26:04.353Z,101837.05
2019-03-25T14:28:49.960Z,101847.77
2019-03-25T14:31:22.971Z,101847.55
2019-03-25T14:34:07.649Z,101846.93
2019-03-25T14:36:51.842Z,101833.59
2019-03-25T14:39:36.015Z,101834.08
2019-03-25T14:42:19.999Z,101836.59
2019-03-25T14:45:08.164Z,101838.84
2019-03-25T14:48:05.597Z,101871.16
2019-03-25T14:50:50.093Z,101847.41
2019-03-25T14:53:44.814Z,101883.89
2019-03-25T14:56:20.654Z,101883.06
2019-03-25T14:59:04.897Z,101886.52
2019-03-25T15:04:24.747Z,101897.08
2019-03-25T15:07:09.273Z,101897.60
2019-03-25T15:09:53.199Z,101874.78
2019-03-25T15:12:38.530Z,101908.69
2019-03-25T15:15:22.395Z,101916.03
2019-03-25T15:18:15.522Z,101900.67
2019-03-25T15:21:02.461Z,101925.73
2019-03-25T15:23:47.150Z,101934.77
2019-03-25T15:26:31.029Z,101921.21
2019-03-25T15:29:15.570Z,101943.52
2019-03-25T15:32:00.368Z,101922.66
2019-03-25T15:34:44.319Z,101958.92
2019-03-25T15:37:28.110Z,101944.17
2019-03-25T15:40:12.285Z,101940.30
2019-03-25T15:42:56.984Z,101945.31
2019-03-25T15:45:41.010Z,101954.41
2019-03-25T15:48:25.274Z,101966.16
2019-03-25T15:51:10.070Z,101970.98
2019-03-25T15:53:54.394Z,101997.39
2019-03-25T15:56:38.721Z,101996.80
2019-03-25T15:59:24.447Z,102017.62
2019-03-25T16:02:08.261Z,102016.02
2019-03-25T16:04:53.161Z,102019.16
2019-03-25T16:07:37.886Z,102020.12
2019-03-25T16:10:21.829Z,102017.22
2019-03-25T16:13:06.570Z,102038.91
2019-03-25T16:15:52.795Z,102014.64
2019-03-25T16:18:40.326Z,102027.98
2019-03-25T16:21:25.482Z,102030.91
2019-03-25T16:24:10.684Z,102032.98
2019-03-25T16:26:55.902Z,102039.53
2019-03-25T16:29:40.091Z,102075.82
2019-03-25T16:32:24.522Z,102067.73
2019-03-25T16:35:08.645Z,102091.47
2019-03-25T16:37:41.656Z,102092.70
2019-03-25T16:40:26.231Z,102075.80
2019-03-25T16:42:59.233Z,102106.47
2019-03-25T16:45:43.100Z,102110.33
2019-03-25T16:48:26.954Z,102117.89
2019-03-25T16:51:11.260Z,102100.92
2019-03-25T16:53:57.082Z,102102.34
2019-03-25T16:56:42.144Z,102128.72
2019-03-25T16:59:26.909Z,102113.06
2019-03-25T17:02:15.307Z,102139.30
2019-03-25T17:04:59.336Z,102119.80
2019-03-25T17:07:44.352Z,102149.84
2019-03-25T17:10:28.796Z,102140.12
2019-03-25T17:13:13.091Z,102146.99
2019-03-25T17:15:57.507Z,102155.29
2019-03-25T17:18:42.794Z,102188.08
2019-03-25T17:21:27.731Z,102190.91
2019-03-25T17:24:14.265Z,102196.16
2019-03-25T17:26:58.678Z,102182.98
2019-03-25T17:29:43.099Z,102204.28
2019-03-25T17:32:27.440Z,102227.20
2019-03-25T17:35:12.283Z,102229.57
2019-03-25T17:37:56.369Z,102213.00
2019-03-25T17:40:42.726Z,102244.91
2019-03-25T17:43:28.188Z,102238.02
2019-03-25T17:46:15.395Z,102253.97
2019-03-25T17:49:00.482Z,102267.48
2019-03-25T17:51:45.281Z,102267.18
2019-03-25T17:54:29.445Z,102250.33
2019-03-25T17:57:14.079Z,102290.34
2019-03-25T17:59:59.079Z,102292.23
2019-03-25T18:02:47.289Z,102277.92
2019-03-25T18:05:31.863Z,102282.83
2019-03-25T18:08:15.955Z,102318.67
2019-03-25T18:10:49.953Z,102323.06
2019-03-25T18:13:35.664Z,102323.77
2019-03-25T18:16:19.917Z,102328.75
2019-03-25T18:19:05.117Z,102308.92
2019-03-25T18:21:38.180Z,102332.84
2019-03-25T18:24:22.637Z,102317.63
2019-03-25T18:27:07.969Z,102323.02
2019-03-25T18:29:53.074Z,102332.56
2019-03-25T18:32:38.121Z,102360.42
2019-03-25T18:35:24.550Z,102343.08
2019-03-25T18:38:09.448Z,102373.97
2019-03-25T18:40:54.246Z,102379.78
2019-03-25T18:43:40.236Z,102352.43
2019-03-25T18:46:25.156Z,102358.34
2019-03-25T18:49:09.661Z,102380.08
2019-03-25T18:51:54.330Z,102367.21
2019-03-25T18:54:28.547Z,102390.88
2019-03-25T18:57:02.334Z,102398.55
2019-03-25T18:59:46.980Z,102380.80
2019-03-25T19:02:30.898Z,102409.95
2019-03-25T19:05:15.200Z,102400.31
2019-03-25T19:07:59.887Z,102419.27
2019-03-25T19:10:49.759Z,102430.16
2019-03-25T19:13:34.173Z,102406.26
2019-03-25T19:19:21.575Z,102405.09
2019-03-25T19:22:06.048Z,102412.27
2019-03-25T19:24:39.184Z,102440.75
2019-03-25T19:27:25.280Z,102444.44
2019-03-25T19:30:09.683Z,102411.73
2019-03-25T19:32:55.449Z,102441.64
2019-03-25T19:35:39.800Z,102416.44
2019-03-25T19:38:13.647Z,102448.17
2019-03-25T19:40:57.449Z,102462.49
2019-03-25T19:43:41.868Z,102447.59
2019-03-25T19:46:26.434Z,102442.89
2019-03-25T19:49:12.063Z,102448.89
2019-03-25T19:52:00.807Z,102479.78
2019-03-25T19:54:45.795Z,102479.50
2019-03-25T19:57:32.339Z,102452.02
2019-03-25T20:00:19.546Z,102459.20
2019-03-25T20:03:03.537Z,102456.96
2019-03-25T20:05:48.964Z,102491.17
2019-03-25T20:08:34.365Z,102489.80
2019-03-25T20:11:20.025Z,102496.43
2019-03-25T20:14:05.787Z,102495.73
2019-03-25T20:16:51.312Z,102502.30
2019-03-25T20:19:35.897Z,102509.41
2019-03-25T20:22:20.847Z,102519.18
2019-03-25T20:25:06.364Z,102522.42
2019-03-25T20:27:52.066Z,102509.02
2019-03-25T20:30:38.227Z,102536.14
2019-03-25T20:33:27.788Z,102505.93
2019-03-25T20:36:12.877Z,102511.86
2019-03-25T20:39:01.704Z,102550.52
2019-03-25T20:42:00.889Z,102542.75
2019-03-25T20:44:46.351Z,102549.11
2019-03-25T20:47:31.713Z,102534.58
2019-03-25T20:50:17.378Z,102559.00
2019-03-25T20:53:01.581Z,102553.03
2019-03-25T20:55:47.363Z,102532.91
2019-03-25T20:58:32.728Z,102569.75
2019-03-25T21:01:18.327Z,102563.25
2019-03-25T21:04:02.792Z,102544.10
2019-03-25T21:06:46.972Z,102573.11
2019-03-25T21:09:31.475Z,102559.45
2019-03-25T21:12:15.793Z,102583.11
2019-03-25T21:14:59.918Z,102587.36
2019-03-25T21:17:44.730Z,102573.48
2019-03-25T21:20:29.453Z,102572.80
2019-03-25T21:23:14.271Z,102570.47
2019-03-25T21:25:59.208Z,102568.92
2019-03-25T21:28:43.598Z,102576.65
2019-03-25T21:31:27.895Z,102568.70
2019-03-25T21:34:12.426Z,102579.42
2019-03-25T21:36:57.473Z,102583.97
2019-03-25T21:39:42.150Z,102586.90
2019-03-25T21:42:29.135Z,102595.45
2019-03-25T21:45:13.089Z,102591.42
2019-03-25T21:47:57.498Z,102620.71
2019-03-25T21:50:41.393Z,102593.39
2019-03-25T21:53:29.520Z,102594.66
2019-03-25T21:56:14.175Z,102598.12
2019-03-25T21:59:00.636Z,102588.23
2019-03-25T22:01:45.589Z,102617.81
2019-03-25T22:04:30.110Z,102629.35
2019-03-25T22:07:14.568Z,102622.32
2019-03-25T22:09:58.966Z,102622.64
2019-03-25T22:12:43.072Z,102600.48
2019-03-25T22:15:27.183Z,102617.11
2019-03-25T22:18:11.166Z,102593.91
2019-03-25T22:20:55.781Z,102600.55
2019-03-25T22:23:39.784Z,102618.80
2019-03-25T22:26:24.310Z,102590.51
2019-03-25T22:29:08.571Z,102595.91
2019-03-25T22:31:53.121Z,102596.40
2019-03-25T22:34:26.098Z,102625.77
2019-03-25T22:37:10.020Z,102600.67
2019-03-25T22:39:54.117Z,102632.53
2019-03-25T22:42:38.914Z,102622.76
2019-03-25T22:45:29.341Z,102620.86
2019-03-25T22:48:13.298Z,102641.48
2019-03-25T22:54:08.214Z,102646.02
2019-03-25T22:56:52.887Z,102624.62
2019-03-25T22:59:38.047Z,102658.60
2019-03-25T23:02:22.096Z,102642.38
2019-03-25T23:05:07.735Z,102629.76
2019-03-25T23:07:40.789Z,102659.38
2019-03-25T23:10:25.314Z,102633.97
2019-03-25T23:13:09.716Z,102630.46
2019-03-25T23:15:53.984Z,102658.77
2019-03-25T23:18:38.163Z,102626.73
2019-03-25T23:21:11.272Z,102647.16
2019-03-25T23:24:00.081Z,102646.19
2019-03-25T23:26:44.130Z,102647.54
2019-03-25T23:29:31.201Z,102624.27
2019-03-25T23:32:15.704Z,102620.55
2019-03-25T23:38:02.209Z,102653.32
2019-03-25T23:40:46.868Z,102633.66
2019-03-25T23:43:31.724Z,102667.80
2019-03-25T23:46:16.494Z,102637.08
2019-03-25T23:49:01.093Z,102638.80
2019-03-25T23:51:45.247Z,102639.45
2019-03-25T23:54:35.369Z,102663.58
2019-03-25T23:57:25.679Z,102647.02
